sensor_id;sensor_type;location;lat;lon;timestamp;temperature;humidity
9118;DHT22;4594;50.994;7.126;2023-08-08T00:01:04;16.20;61.40
9118;DHT22;4594;50.994;7.126;2023-08-08T00:03:30;16.30;61.40
9118;DHT22;4594;50.994;7.126;2023-08-08T00:05:55;16.20;61.20
9118;DHT22;4594;50.994;7.126;2023-08-08T00:08:21;16.20;61.20
9118;DHT22;4594;50.994;7.126;2023-08-08T00:10:47;16.20;61.20
9118;DHT22;4594;50.994;7.126;2023-08-08T00:13:12;16.20;61.30
9118;DHT22;4594;50.994;7.126;2023-08-08T00:15:38;16.10;61.30
9118;DHT22;4594;50.994;7.126;2023-08-08T00:18:04;16.10;61.30
9118;DHT22;4594;50.994;7.126;2023-08-08T00:20:30;16.10;61.40
9118;DHT22;4594;50.994;7.126;2023-08-08T00:22:56;16.10;61.40
9118;DHT22;4594;50.994;7.126;2023-08-08T00:25:21;16.10;61.40
9118;DHT22;4594;50.994;7.126;2023-08-08T00:27:47;16.10;61.40
9118;DHT22;4594;50.994;7.126;2023-08-08T00:30:14;16.10;61.50
9118;DHT22;4594;50.994;7.126;2023-08-08T00:32:40;16.00;61.30
9118;DHT22;4594;50.994;7.126;2023-08-08T00:35:06;16.00;61.50
9118;DHT22;4594;50.994;7.126;2023-08-08T00:37:31;16.00;61.50
9118;DHT22;4594;50.994;7.126;2023-08-08T00:39:57;16.00;61.40
9118;DHT22;4594;50.994;7.126;2023-08-08T00:42:23;16.00;61.30
9118;DHT22;4594;50.994;7.126;2023-08-08T00:44:49;15.90;61.00
9118;DHT22;4594;50.994;7.126;2023-08-08T00:47:14;15.90;60.90
9118;DHT22;4594;50.994;7.126;2023-08-08T00:49:40;15.90;60.70
9118;DHT22;4594;50.994;7.126;2023-08-08T00:52:07;15.80;60.50
9118;DHT22;4594;50.994;7.126;2023-08-08T00:54:33;15.80;60.40
9118;DHT22;4594;50.994;7.126;2023-08-08T00:56:59;15.80;60.30
9118;DHT22;4594;50.994;7.126;2023-08-08T00:59:24;15.70;60.10
9118;DHT22;4594;50.994;7.126;2023-08-08T01:01:50;15.70;60.20
9118;DHT22;4594;50.994;7.126;2023-08-08T01:04:17;15.70;60.10
9118;DHT22;4594;50.994;7.126;2023-08-08T01:09:58;15.60;59.10
9118;DHT22;4594;50.994;7.126;2023-08-08T01:12:38;15.50;59.90
9118;DHT22;4594;50.994;7.126;2023-08-08T01:15:08;15.50;60.90
9118;DHT22;4594;50.994;7.126;2023-08-08T01:17:35;15.50;61.30
9118;DHT22;4594;50.994;7.126;2023-08-08T01:20:05;15.60;61.70
9118;DHT22;4594;50.994;7.126;2023-08-08T01:22:48;15.40;61.50
9118;DHT22;4594;50.994;7.126;2023-08-08T01:25:22;15.40;60.80
9118;DHT22;4594;50.994;7.126;2023-08-08T01:27:48;15.50;62.20
9118;DHT22;4594;50.994;7.126;2023-08-08T01:30:14;15.40;62.20
9118;DHT22;4594;50.994;7.126;2023-08-08T01:32:40;15.40;62.30
9118;DHT22;4594;50.994;7.126;2023-08-08T01:35:06;15.40;62.50
9118;DHT22;4594;50.994;7.126;2023-08-08T01:37:39;15.40;62.60
9118;DHT22;4594;50.994;7.126;2023-08-08T01:40:17;15.40;62.20
9118;DHT22;4594;50.994;7.126;2023-08-08T01:42:45;15.50;62.70
9118;DHT22;4594;50.994;7.126;2023-08-08T01:45:15;15.50;62.90
9118;DHT22;4594;50.994;7.126;2023-08-08T01:47:42;15.50;63.20
9118;DHT22;4594;50.994;7.126;2023-08-08T01:50:09;15.50;63.20
9118;DHT22;4594;50.994;7.126;2023-08-08T01:52:35;15.50;63.30
9118;DHT22;4594;50.994;7.126;2023-08-08T01:55:01;15.60;63.40
9118;DHT22;4594;50.994;7.126;2023-08-08T01:57:27;15.60;63.40
9118;DHT22;4594;50.994;7.126;2023-08-08T01:59:52;15.70;63.50
9118;DHT22;4594;50.994;7.126;2023-08-08T02:02:18;15.60;63.40
9118;DHT22;4594;50.994;7.126;2023-08-08T02:04:44;15.60;63.40
9118;DHT22;4594;50.994;7.126;2023-08-08T02:07:09;15.60;63.40
9118;DHT22;4594;50.994;7.126;2023-08-08T02:09:35;15.60;63.40
9118;DHT22;4594;50.994;7.126;2023-08-08T02:12:01;15.70;63.40
9118;DHT22;4594;50.994;7.126;2023-08-08T02:14:27;15.60;63.30
9118;DHT22;4594;50.994;7.126;2023-08-08T02:16:52;15.60;63.30
9118;DHT22;4594;50.994;7.126;2023-08-08T02:19:18;15.60;63.30
9118;DHT22;4594;50.994;7.126;2023-08-08T02:21:43;15.50;63.00
9118;DHT22;4594;50.994;7.126;2023-08-08T02:24:09;15.60;63.00
9118;DHT22;4594;50.994;7.126;2023-08-08T02:26:35;15.70;63.00
9118;DHT22;4594;50.994;7.126;2023-08-08T02:29:01;15.70;62.90
9118;DHT22;4594;50.994;7.126;2023-08-08T02:31:26;15.60;62.60
9118;DHT22;4594;50.994;7.126;2023-08-08T02:33:52;15.60;62.30
9118;DHT22;4594;50.994;7.126;2023-08-08T02:36:18;15.90;62.30
9118;DHT22;4594;50.994;7.126;2023-08-08T02:38:44;15.70;61.80
9118;DHT22;4594;50.994;7.126;2023-08-08T02:41:10;15.50;61.30
9118;DHT22;4594;50.994;7.126;2023-08-08T02:43:36;15.50;61.10
9118;DHT22;4594;50.994;7.126;2023-08-08T02:46:02;15.50;61.10
9118;DHT22;4594;50.994;7.126;2023-08-08T02:48:30;15.50;61.20
9118;DHT22;4594;50.994;7.126;2023-08-08T02:50:56;15.40;60.90
9118;DHT22;4594;50.994;7.126;2023-08-08T02:53:22;15.50;61.50
9118;DHT22;4594;50.994;7.126;2023-08-08T02:55:47;15.40;61.30
9118;DHT22;4594;50.994;7.126;2023-08-08T02:58:13;15.30;61.00
9118;DHT22;4594;50.994;7.126;2023-08-08T03:00:39;15.30;60.90
9118;DHT22;4594;50.994;7.126;2023-08-08T03:03:04;15.20;60.80
9118;DHT22;4594;50.994;7.126;2023-08-08T03:05:30;15.20;60.70
9118;DHT22;4594;50.994;7.126;2023-08-08T03:07:56;15.40;60.80
9118;DHT22;4594;50.994;7.126;2023-08-08T03:10:22;15.10;60.40
9118;DHT22;4594;50.994;7.126;2023-08-08T03:12:48;15.10;60.40
9118;DHT22;4594;50.994;7.126;2023-08-08T03:15:14;15.00;60.10
9118;DHT22;4594;50.994;7.126;2023-08-08T03:17:39;15.40;60.50
9118;DHT22;4594;50.994;7.126;2023-08-08T03:20:06;14.90;59.90
9118;DHT22;4594;50.994;7.126;2023-08-08T03:22:32;14.90;59.80
9118;DHT22;4594;50.994;7.126;2023-08-08T03:24:58;14.80;59.80
9118;DHT22;4594;50.994;7.126;2023-08-08T03:27:24;14.80;59.90
9118;DHT22;4594;50.994;7.126;2023-08-08T03:29:50;14.70;59.80
9118;DHT22;4594;50.994;7.126;2023-08-08T03:32:16;14.60;59.80
9118;DHT22;4594;50.994;7.126;2023-08-08T03:34:42;14.70;60.10
9118;DHT22;4594;50.994;7.126;2023-08-08T03:37:08;14.60;60.40
9118;DHT22;4594;50.994;7.126;2023-08-08T03:39:33;14.60;61.30
9118;DHT22;4594;50.994;7.126;2023-08-08T03:41:59;14.60;61.20
9118;DHT22;4594;50.994;7.126;2023-08-08T03:44:25;14.50;61.40
9118;DHT22;4594;50.994;7.126;2023-08-08T03:46:50;14.50;61.70
9118;DHT22;4594;50.994;7.126;2023-08-08T03:49:16;14.50;61.80
9118;DHT22;4594;50.994;7.126;2023-08-08T03:51:42;14.50;61.90
9118;DHT22;4594;50.994;7.126;2023-08-08T03:54:07;14.60;62.10
9118;DHT22;4594;50.994;7.126;2023-08-08T03:56:33;14.50;62.10
9118;DHT22;4594;50.994;7.126;2023-08-08T03:58:59;14.50;62.10
9118;DHT22;4594;50.994;7.126;2023-08-08T04:01:25;14.50;62.10
9118;DHT22;4594;50.994;7.126;2023-08-08T04:03:51;14.70;62.40
9118;DHT22;4594;50.994;7.126;2023-08-08T04:06:16;14.90;62.90
9118;DHT22;4594;50.994;7.126;2023-08-08T04:08:42;14.50;62.70
9118;DHT22;4594;50.994;7.126;2023-08-08T04:11:08;14.60;63.00
9118;DHT22;4594;50.994;7.126;2023-08-08T04:13:33;14.60;63.20
9118;DHT22;4594;50.994;7.126;2023-08-08T04:16:00;14.60;63.30
9118;DHT22;4594;50.994;7.126;2023-08-08T04:18:26;14.80;64.10
9118;DHT22;4594;50.994;7.126;2023-08-08T04:20:52;14.70;63.70
9118;DHT22;4594;50.994;7.126;2023-08-08T04:23:17;14.70;63.80
9118;DHT22;4594;50.994;7.126;2023-08-08T04:25:44;14.70;63.90
9118;DHT22;4594;50.994;7.126;2023-08-08T04:28:09;14.70;63.80
9118;DHT22;4594;50.994;7.126;2023-08-08T04:30:35;14.80;64.00
9118;DHT22;4594;50.994;7.126;2023-08-08T04:33:01;14.80;64.40
9118;DHT22;4594;50.994;7.126;2023-08-08T04:35:27;14.80;64.60
9118;DHT22;4594;50.994;7.126;2023-08-08T04:37:52;14.90;64.90
9118;DHT22;4594;50.994;7.126;2023-08-08T04:40:18;14.90;65.10
9118;DHT22;4594;50.994;7.126;2023-08-08T04:42:44;14.90;65.20
9118;DHT22;4594;50.994;7.126;2023-08-08T04:45:10;15.00;65.30
9118;DHT22;4594;50.994;7.126;2023-08-08T04:47:35;15.10;65.50
9118;DHT22;4594;50.994;7.126;2023-08-08T04:50:01;15.10;65.40
9118;DHT22;4594;50.994;7.126;2023-08-08T04:52:27;15.20;65.60
9118;DHT22;4594;50.994;7.126;2023-08-08T04:54:53;15.20;65.60
9118;DHT22;4594;50.994;7.126;2023-08-08T04:57:18;15.40;65.80
9118;DHT22;4594;50.994;7.126;2023-08-08T04:59:44;15.30;65.60
9118;DHT22;4594;50.994;7.126;2023-08-08T05:02:10;15.40;65.90
9118;DHT22;4594;50.994;7.126;2023-08-08T05:04:35;15.50;65.90
9118;DHT22;4594;50.994;7.126;2023-08-08T05:07:01;15.50;65.60
9118;DHT22;4594;50.994;7.126;2023-08-08T05:09:26;15.60;65.60
9118;DHT22;4594;50.994;7.126;2023-08-08T05:11:53;15.50;65.40
9118;DHT22;4594;50.994;7.126;2023-08-08T05:14:19;15.70;65.60
9118;DHT22;4594;50.994;7.126;2023-08-08T05:16:45;15.80;65.60
9118;DHT22;4594;50.994;7.126;2023-08-08T05:19:10;15.80;65.60
9118;DHT22;4594;50.994;7.126;2023-08-08T05:21:36;15.80;65.50
9118;DHT22;4594;50.994;7.126;2023-08-08T05:24:02;15.90;65.50
9118;DHT22;4594;50.994;7.126;2023-08-08T05:26:28;15.90;65.40
9118;DHT22;4594;50.994;7.126;2023-08-08T05:28:53;15.90;65.20
9118;DHT22;4594;50.994;7.126;2023-08-08T05:31:19;16.00;65.20
9118;DHT22;4594;50.994;7.126;2023-08-08T05:33:45;16.10;65.20
9118;DHT22;4594;50.994;7.126;2023-08-08T05:36:10;16.00;64.90
9118;DHT22;4594;50.994;7.126;2023-08-08T05:38:36;16.10;64.90
9118;DHT22;4594;50.994;7.126;2023-08-08T05:41:02;16.10;64.90
9118;DHT22;4594;50.994;7.126;2023-08-08T05:43:28;16.10;64.90
9118;DHT22;4594;50.994;7.126;2023-08-08T05:45:54;16.10;64.90
9118;DHT22;4594;50.994;7.126;2023-08-08T05:48:19;16.20;65.10
9118;DHT22;4594;50.994;7.126;2023-08-08T05:50:45;16.20;65.00
9118;DHT22;4594;50.994;7.126;2023-08-08T05:53:10;16.40;65.20
9118;DHT22;4594;50.994;7.126;2023-08-08T05:55:37;16.30;65.40
9118;DHT22;4594;50.994;7.126;2023-08-08T05:58:02;16.40;65.50
9118;DHT22;4594;50.994;7.126;2023-08-08T06:00:30;16.40;65.40
9118;DHT22;4594;50.994;7.126;2023-08-08T06:02:55;16.40;65.40
9118;DHT22;4594;50.994;7.126;2023-08-08T06:05:22;16.40;65.50
9118;DHT22;4594;50.994;7.126;2023-08-08T06:07:49;16.50;65.80
9118;DHT22;4594;50.994;7.126;2023-08-08T06:10:15;16.50;65.70
9118;DHT22;4594;50.994;7.126;2023-08-08T06:12:41;16.60;65.90
9118;DHT22;4594;50.994;7.126;2023-08-08T06:15:07;16.70;66.00
9118;DHT22;4594;50.994;7.126;2023-08-08T06:17:33;16.70;66.00
9118;DHT22;4594;50.994;7.126;2023-08-08T06:19:59;16.70;66.00
9118;DHT22;4594;50.994;7.126;2023-08-08T06:22:25;16.80;66.10
9118;DHT22;4594;50.994;7.126;2023-08-08T06:24:51;16.80;66.10
9118;DHT22;4594;50.994;7.126;2023-08-08T06:27:17;17.00;66.40
9118;DHT22;4594;50.994;7.126;2023-08-08T06:29:43;17.00;66.20
9118;DHT22;4594;50.994;7.126;2023-08-08T06:32:09;17.00;66.20
9118;DHT22;4594;50.994;7.126;2023-08-08T06:34:34;17.10;66.40
9118;DHT22;4594;50.994;7.126;2023-08-08T06:37:00;17.10;66.30
9118;DHT22;4594;50.994;7.126;2023-08-08T06:39:26;17.20;66.60
9118;DHT22;4594;50.994;7.126;2023-08-08T06:41:51;17.20;66.80
9118;DHT22;4594;50.994;7.126;2023-08-08T06:44:17;17.30;66.80
9118;DHT22;4594;50.994;7.126;2023-08-08T06:46:43;17.30;66.80
9118;DHT22;4594;50.994;7.126;2023-08-08T06:49:09;17.40;67.00
9118;DHT22;4594;50.994;7.126;2023-08-08T06:51:34;17.40;67.10
9118;DHT22;4594;50.994;7.126;2023-08-08T06:54:00;17.50;67.70
9118;DHT22;4594;50.994;7.126;2023-08-08T06:56:26;17.60;67.70
9118;DHT22;4594;50.994;7.126;2023-08-08T06:58:53;17.70;67.60
9118;DHT22;4594;50.994;7.126;2023-08-08T07:01:19;17.80;67.80
9118;DHT22;4594;50.994;7.126;2023-08-08T07:03:45;17.90;68.00
9118;DHT22;4594;50.994;7.126;2023-08-08T07:06:12;17.90;67.90
9118;DHT22;4594;50.994;7.126;2023-08-08T07:08:37;18.00;67.90
9118;DHT22;4594;50.994;7.126;2023-08-08T07:11:05;18.10;68.00
9118;DHT22;4594;50.994;7.126;2023-08-08T07:13:34;18.20;67.90
9118;DHT22;4594;50.994;7.126;2023-08-08T07:16:00;18.30;68.10
9118;DHT22;4594;50.994;7.126;2023-08-08T07:18:26;18.40;68.00
9118;DHT22;4594;50.994;7.126;2023-08-08T07:20:52;18.50;67.90
9118;DHT22;4594;50.994;7.126;2023-08-08T07:23:17;18.50;67.20
9118;DHT22;4594;50.994;7.126;2023-08-08T07:25:45;18.60;67.00
9118;DHT22;4594;50.994;7.126;2023-08-08T07:28:12;18.70;65.80
9118;DHT22;4594;50.994;7.126;2023-08-08T07:30:40;18.70;66.00
9118;DHT22;4594;50.994;7.126;2023-08-08T07:33:07;18.90;66.30
9118;DHT22;4594;50.994;7.126;2023-08-08T07:35:34;18.80;66.30
9118;DHT22;4594;50.994;7.126;2023-08-08T07:38:00;19.00;66.60
9118;DHT22;4594;50.994;7.126;2023-08-08T07:40:25;19.00;66.80
9118;DHT22;4594;50.994;7.126;2023-08-08T07:42:51;19.10;66.90
9118;DHT22;4594;50.994;7.126;2023-08-08T07:45:17;19.20;66.80
9118;DHT22;4594;50.994;7.126;2023-08-08T07:47:44;19.20;66.20
9118;DHT22;4594;50.994;7.126;2023-08-08T07:50:11;19.20;65.90
9118;DHT22;4594;50.994;7.126;2023-08-08T07:52:37;19.30;65.70
9118;DHT22;4594;50.994;7.126;2023-08-08T07:55:04;19.50;65.80
9118;DHT22;4594;50.994;7.126;2023-08-08T07:57:30;19.40;65.60
9118;DHT22;4594;50.994;7.126;2023-08-08T07:59:59;19.50;65.50
9118;DHT22;4594;50.994;7.126;2023-08-08T08:02:24;19.50;65.40
9118;DHT22;4594;50.994;7.126;2023-08-08T08:04:50;19.50;65.40
9118;DHT22;4594;50.994;7.126;2023-08-08T08:07:16;19.60;66.10
9118;DHT22;4594;50.994;7.126;2023-08-08T08:09:41;19.70;66.30
9118;DHT22;4594;50.994;7.126;2023-08-08T08:12:08;19.80;66.80
9118;DHT22;4594;50.994;7.126;2023-08-08T08:14:34;19.80;66.70
9118;DHT22;4594;50.994;7.126;2023-08-08T08:16:59;20.00;66.40
9118;DHT22;4594;50.994;7.126;2023-08-08T08:19:25;20.10;66.20
9118;DHT22;4594;50.994;7.126;2023-08-08T08:21:51;20.10;66.10
9118;DHT22;4594;50.994;7.126;2023-08-08T08:24:17;20.20;66.10
9118;DHT22;4594;50.994;7.126;2023-08-08T08:26:42;20.30;65.80
9118;DHT22;4594;50.994;7.126;2023-08-08T08:29:08;20.40;65.30
9118;DHT22;4594;50.994;7.126;2023-08-08T08:31:34;20.50;65.10
9118;DHT22;4594;50.994;7.126;2023-08-08T08:33:59;20.50;65.00
9118;DHT22;4594;50.994;7.126;2023-08-08T08:36:25;20.60;64.90
9118;DHT22;4594;50.994;7.126;2023-08-08T08:38:51;20.70;65.10
9118;DHT22;4594;50.994;7.126;2023-08-08T08:41:18;20.70;64.60
9118;DHT22;4594;50.994;7.126;2023-08-08T08:43:50;20.80;64.10
9118;DHT22;4594;50.994;7.126;2023-08-08T08:46:20;20.80;63.60
9118;DHT22;4594;50.994;7.126;2023-08-08T08:48:51;20.80;60.80
9118;DHT22;4594;50.994;7.126;2023-08-08T08:51:18;20.80;60.00
9118;DHT22;4594;50.994;7.126;2023-08-08T08:53:44;20.80;61.00
9118;DHT22;4594;50.994;7.126;2023-08-08T08:56:16;20.70;60.90
9118;DHT22;4594;50.994;7.126;2023-08-08T08:58:42;20.70;60.20
9118;DHT22;4594;50.994;7.126;2023-08-08T09:01:09;20.60;60.30
9118;DHT22;4594;50.994;7.126;2023-08-08T09:03:36;20.50;59.70
9118;DHT22;4594;50.994;7.126;2023-08-08T09:06:03;20.50;59.80
9118;DHT22;4594;50.994;7.126;2023-08-08T09:08:30;20.40;60.20
9118;DHT22;4594;50.994;7.126;2023-08-08T09:10:56;20.40;60.70
9118;DHT22;4594;50.994;7.126;2023-08-08T09:13:23;20.30;61.10
9118;DHT22;4594;50.994;7.126;2023-08-08T09:15:52;20.30;61.20
9118;DHT22;4594;50.994;7.126;2023-08-08T09:18:18;20.20;61.10
9118;DHT22;4594;50.994;7.126;2023-08-08T09:20:48;20.20;61.20
9118;DHT22;4594;50.994;7.126;2023-08-08T09:23:14;20.20;59.70
9118;DHT22;4594;50.994;7.126;2023-08-08T09:25:41;20.10;60.90
9118;DHT22;4594;50.994;7.126;2023-08-08T09:28:07;20.10;61.10
9118;DHT22;4594;50.994;7.126;2023-08-08T09:30:33;20.10;61.00
9118;DHT22;4594;50.994;7.126;2023-08-08T09:33:03;20.10;61.00
9118;DHT22;4594;50.994;7.126;2023-08-08T09:35:30;20.00;59.90
9118;DHT22;4594;50.994;7.126;2023-08-08T09:37:56;20.00;60.70
9118;DHT22;4594;50.994;7.126;2023-08-08T09:40:23;20.00;60.80
9118;DHT22;4594;50.994;7.126;2023-08-08T09:42:51;19.90;60.60
9118;DHT22;4594;50.994;7.126;2023-08-08T09:45:18;19.80;59.70
9118;DHT22;4594;50.994;7.126;2023-08-08T09:47:45;19.90;60.80
9118;DHT22;4594;50.994;7.126;2023-08-08T09:50:11;19.90;60.70
9118;DHT22;4594;50.994;7.126;2023-08-08T09:52:38;19.90;60.40
9118;DHT22;4594;50.994;7.126;2023-08-08T09:55:05;19.90;60.60
9118;DHT22;4594;50.994;7.126;2023-08-08T09:57:32;19.90;61.00
9118;DHT22;4594;50.994;7.126;2023-08-08T09:59:58;19.90;61.00
9118;DHT22;4594;50.994;7.126;2023-08-08T10:02:24;19.90;61.20
9118;DHT22;4594;50.994;7.126;2023-08-08T10:04:51;19.90;61.30
9118;DHT22;4594;50.994;7.126;2023-08-08T10:07:17;20.00;60.80
9118;DHT22;4594;50.994;7.126;2023-08-08T10:09:43;19.90;61.10
9118;DHT22;4594;50.994;7.126;2023-08-08T10:12:11;19.80;60.90
9118;DHT22;4594;50.994;7.126;2023-08-08T10:14:38;19.90;60.30
9118;DHT22;4594;50.994;7.126;2023-08-08T10:17:07;20.00;61.70
9118;DHT22;4594;50.994;7.126;2023-08-08T10:19:33;19.90;62.10
9118;DHT22;4594;50.994;7.126;2023-08-08T10:22:04;20.00;62.60
9118;DHT22;4594;50.994;7.126;2023-08-08T10:24:34;20.10;61.80
9118;DHT22;4594;50.994;7.126;2023-08-08T10:27:01;20.00;60.90
9118;DHT22;4594;50.994;7.126;2023-08-08T10:29:31;20.10;62.70
9118;DHT22;4594;50.994;7.126;2023-08-08T10:32:03;20.10;62.70
9118;DHT22;4594;50.994;7.126;2023-08-08T10:37:05;20.20;62.20
9118;DHT22;4594;50.994;7.126;2023-08-08T10:39:34;20.20;64.00
9118;DHT22;4594;50.994;7.126;2023-08-08T10:42:03;20.30;65.40
9118;DHT22;4594;50.994;7.126;2023-08-08T10:44:30;20.50;66.10
9118;DHT22;4594;50.994;7.126;2023-08-08T10:46:55;20.80;67.30
9118;DHT22;4594;50.994;7.126;2023-08-08T10:49:22;20.90;66.90
9118;DHT22;4594;50.994;7.126;2023-08-08T10:51:49;21.00;65.80
9118;DHT22;4594;50.994;7.126;2023-08-08T10:54:19;21.20;64.50
9118;DHT22;4594;50.994;7.126;2023-08-08T10:56:56;21.30;63.50
9118;DHT22;4594;50.994;7.126;2023-08-08T10:59:26;21.40;63.30
9118;DHT22;4594;50.994;7.126;2023-08-08T11:01:55;21.50;61.80
9118;DHT22;4594;50.994;7.126;2023-08-08T11:04:23;21.60;62.00
9118;DHT22;4594;50.994;7.126;2023-08-08T11:06:53;21.60;60.40
9118;DHT22;4594;50.994;7.126;2023-08-08T11:09:20;21.60;59.80
9118;DHT22;4594;50.994;7.126;2023-08-08T11:11:46;21.60;59.70
9118;DHT22;4594;50.994;7.126;2023-08-08T11:14:16;21.60;59.20
9118;DHT22;4594;50.994;7.126;2023-08-08T11:16:44;21.60;58.40
9118;DHT22;4594;50.994;7.126;2023-08-08T11:19:11;21.60;58.50
9118;DHT22;4594;50.994;7.126;2023-08-08T11:21:41;21.60;58.60
9118;DHT22;4594;50.994;7.126;2023-08-08T11:24:08;21.40;57.60
9118;DHT22;4594;50.994;7.126;2023-08-08T11:26:37;21.40;58.70
9118;DHT22;4594;50.994;7.126;2023-08-08T11:29:05;21.40;58.70
9118;DHT22;4594;50.994;7.126;2023-08-08T11:31:32;21.30;59.00
9118;DHT22;4594;50.994;7.126;2023-08-08T11:33:59;21.30;59.20
9118;DHT22;4594;50.994;7.126;2023-08-08T11:36:32;21.30;59.40
9118;DHT22;4594;50.994;7.126;2023-08-08T11:39:04;21.30;58.00
9118;DHT22;4594;50.994;7.126;2023-08-08T11:41:34;21.30;59.00
9118;DHT22;4594;50.994;7.126;2023-08-08T11:44:02;21.20;59.10
9118;DHT22;4594;50.994;7.126;2023-08-08T11:46:29;21.20;58.90
9118;DHT22;4594;50.994;7.126;2023-08-08T11:49:05;21.20;59.10
9118;DHT22;4594;50.994;7.126;2023-08-08T11:51:32;21.20;57.50
9118;DHT22;4594;50.994;7.126;2023-08-08T11:54:00;21.20;59.10
9118;DHT22;4594;50.994;7.126;2023-08-08T11:56:27;21.10;59.10
9118;DHT22;4594;50.994;7.126;2023-08-08T11:58:55;21.20;59.00
9118;DHT22;4594;50.994;7.126;2023-08-08T12:01:24;21.20;58.50
9118;DHT22;4594;50.994;7.126;2023-08-08T12:03:51;21.20;57.80
9118;DHT22;4594;50.994;7.126;2023-08-08T12:06:17;21.20;58.30
9118;DHT22;4594;50.994;7.126;2023-08-08T12:08:45;21.30;58.50
9118;DHT22;4594;50.994;7.126;2023-08-08T12:11:13;21.30;58.20
9118;DHT22;4594;50.994;7.126;2023-08-08T12:13:41;21.30;58.30
9118;DHT22;4594;50.994;7.126;2023-08-08T12:16:12;21.30;58.40
9118;DHT22;4594;50.994;7.126;2023-08-08T12:18:40;21.40;57.40
9118;DHT22;4594;50.994;7.126;2023-08-08T12:21:09;21.40;58.10
9118;DHT22;4594;50.994;7.126;2023-08-08T12:23:36;21.40;58.10
9118;DHT22;4594;50.994;7.126;2023-08-08T12:26:06;21.40;58.00
9118;DHT22;4594;50.994;7.126;2023-08-08T12:28:32;21.40;56.80
9118;DHT22;4594;50.994;7.126;2023-08-08T12:30:59;21.40;57.60
9118;DHT22;4594;50.994;7.126;2023-08-08T12:33:25;21.40;57.50
9118;DHT22;4594;50.994;7.126;2023-08-08T12:35:51;21.40;57.30
9118;DHT22;4594;50.994;7.126;2023-08-08T12:38:16;21.40;57.20
9118;DHT22;4594;50.994;7.126;2023-08-08T12:40:42;21.40;57.10
9118;DHT22;4594;50.994;7.126;2023-08-08T12:43:10;21.40;56.80
9118;DHT22;4594;50.994;7.126;2023-08-08T12:45:45;21.40;56.30
9118;DHT22;4594;50.994;7.126;2023-08-08T12:48:12;21.40;56.50
9118;DHT22;4594;50.994;7.126;2023-08-08T12:50:38;21.40;56.30
9118;DHT22;4594;50.994;7.126;2023-08-08T12:53:04;21.30;56.20
9118;DHT22;4594;50.994;7.126;2023-08-08T12:55:30;21.40;55.90
9118;DHT22;4594;50.994;7.126;2023-08-08T12:57:56;21.40;56.30
9118;DHT22;4594;50.994;7.126;2023-08-08T13:00:22;21.40;56.00
9118;DHT22;4594;50.994;7.126;2023-08-08T13:02:48;21.40;56.40
9118;DHT22;4594;50.994;7.126;2023-08-08T13:05:14;21.40;56.50
9118;DHT22;4594;50.994;7.126;2023-08-08T13:07:40;21.30;56.50
9118;DHT22;4594;50.994;7.126;2023-08-08T13:10:06;21.20;56.30
9118;DHT22;4594;50.994;7.126;2023-08-08T13:12:32;21.20;56.50
9118;DHT22;4594;50.994;7.126;2023-08-08T13:14:58;21.10;56.50
9118;DHT22;4594;50.994;7.126;2023-08-08T13:17:24;21.00;56.60
9118;DHT22;4594;50.994;7.126;2023-08-08T13:19:49;20.90;56.60
9118;DHT22;4594;50.994;7.126;2023-08-08T13:22:15;20.80;56.70
9118;DHT22;4594;50.994;7.126;2023-08-08T13:24:41;20.70;56.90
9118;DHT22;4594;50.994;7.126;2023-08-08T13:27:06;20.60;57.20
9118;DHT22;4594;50.994;7.126;2023-08-08T13:29:32;20.60;57.30
9118;DHT22;4594;50.994;7.126;2023-08-08T13:31:58;20.50;57.50
9118;DHT22;4594;50.994;7.126;2023-08-08T13:34:23;20.40;57.80
9118;DHT22;4594;50.994;7.126;2023-08-08T13:36:49;20.40;58.20
9118;DHT22;4594;50.994;7.126;2023-08-08T13:39:15;20.30;58.60
9118;DHT22;4594;50.994;7.126;2023-08-08T13:41:40;20.30;59.00
9118;DHT22;4594;50.994;7.126;2023-08-08T13:44:06;20.40;59.80
9118;DHT22;4594;50.994;7.126;2023-08-08T13:46:32;20.40;60.30
9118;DHT22;4594;50.994;7.126;2023-08-08T13:48:58;20.50;60.80
9118;DHT22;4594;50.994;7.126;2023-08-08T13:51:23;20.50;61.30
9118;DHT22;4594;50.994;7.126;2023-08-08T13:53:49;20.60;62.00
9118;DHT22;4594;50.994;7.126;2023-08-08T13:56:15;20.70;62.40
9118;DHT22;4594;50.994;7.126;2023-08-08T13:58:41;20.80;62.60
9118;DHT22;4594;50.994;7.126;2023-08-08T14:01:07;21.30;63.20
9118;DHT22;4594;50.994;7.126;2023-08-08T14:03:32;21.00;62.70
9118;DHT22;4594;50.994;7.126;2023-08-08T14:05:58;21.10;62.60
9118;DHT22;4594;50.994;7.126;2023-08-08T14:08:24;21.20;62.60
9118;DHT22;4594;50.994;7.126;2023-08-08T14:10:50;21.30;61.60
9118;DHT22;4594;50.994;7.126;2023-08-08T14:13:16;21.40;61.20
9118;DHT22;4594;50.994;7.126;2023-08-08T14:15:41;21.50;60.40
9118;DHT22;4594;50.994;7.126;2023-08-08T14:18:07;21.60;60.00
9118;DHT22;4594;50.994;7.126;2023-08-08T14:20:33;21.70;59.50
9118;DHT22;4594;50.994;7.126;2023-08-08T14:23:00;21.80;59.00
9118;DHT22;4594;50.994;7.126;2023-08-08T14:25:26;21.80;58.60
9118;DHT22;4594;50.994;7.126;2023-08-08T14:27:51;21.80;58.50
9118;DHT22;4594;50.994;7.126;2023-08-08T14:30:17;21.90;58.60
9118;DHT22;4594;50.994;7.126;2023-08-08T14:32:43;21.90;58.60
9118;DHT22;4594;50.994;7.126;2023-08-08T14:35:08;22.00;58.50
9118;DHT22;4594;50.994;7.126;2023-08-08T14:37:35;22.00;58.70
9118;DHT22;4594;50.994;7.126;2023-08-08T14:40:02;22.10;58.10
9118;DHT22;4594;50.994;7.126;2023-08-08T14:42:28;22.10;58.00
9118;DHT22;4594;50.994;7.126;2023-08-08T14:44:54;22.10;58.40
9118;DHT22;4594;50.994;7.126;2023-08-08T14:47:20;22.20;58.20
9118;DHT22;4594;50.994;7.126;2023-08-08T14:49:47;22.20;57.50
9118;DHT22;4594;50.994;7.126;2023-08-08T14:52:12;22.20;57.10
9118;DHT22;4594;50.994;7.126;2023-08-08T14:54:39;22.30;57.00
9118;DHT22;4594;50.994;7.126;2023-08-08T14:57:05;22.30;56.80
9118;DHT22;4594;50.994;7.126;2023-08-08T14:59:31;22.30;56.60
9118;DHT22;4594;50.994;7.126;2023-08-08T15:01:56;22.30;56.90
9118;DHT22;4594;50.994;7.126;2023-08-08T15:04:22;22.30;56.40
9118;DHT22;4594;50.994;7.126;2023-08-08T15:06:48;22.30;56.30
9118;DHT22;4594;50.994;7.126;2023-08-08T15:09:13;22.30;56.20
9118;DHT22;4594;50.994;7.126;2023-08-08T15:11:39;22.40;56.60
9118;DHT22;4594;50.994;7.126;2023-08-08T15:14:05;22.30;56.40
9118;DHT22;4594;50.994;7.126;2023-08-08T15:16:30;22.30;56.30
9118;DHT22;4594;50.994;7.126;2023-08-08T15:18:56;22.40;56.30
9118;DHT22;4594;50.994;7.126;2023-08-08T15:21:22;22.40;56.20
9118;DHT22;4594;50.994;7.126;2023-08-08T15:23:48;22.40;55.70
9118;DHT22;4594;50.994;7.126;2023-08-08T15:26:15;22.40;55.60
9118;DHT22;4594;50.994;7.126;2023-08-08T15:28:46;22.40;55.80
9118;DHT22;4594;50.994;7.126;2023-08-08T15:31:12;22.40;55.90
9118;DHT22;4594;50.994;7.126;2023-08-08T15:33:38;22.50;56.10
9118;DHT22;4594;50.994;7.126;2023-08-08T15:36:05;22.50;55.90
9118;DHT22;4594;50.994;7.126;2023-08-08T15:38:31;22.50;56.00
9118;DHT22;4594;50.994;7.126;2023-08-08T15:40:57;22.50;55.80
9118;DHT22;4594;50.994;7.126;2023-08-08T15:43:23;22.50;55.70
9118;DHT22;4594;50.994;7.126;2023-08-08T15:45:50;22.50;55.20
9118;DHT22;4594;50.994;7.126;2023-08-08T15:48:16;22.50;55.10
9118;DHT22;4594;50.994;7.126;2023-08-08T15:50:42;22.50;54.70
9118;DHT22;4594;50.994;7.126;2023-08-08T15:53:08;22.50;55.00
9118;DHT22;4594;50.994;7.126;2023-08-08T15:55:36;22.50;54.90
9118;DHT22;4594;50.994;7.126;2023-08-08T15:58:02;22.50;54.70
9118;DHT22;4594;50.994;7.126;2023-08-08T16:00:29;22.50;54.50
9118;DHT22;4594;50.994;7.126;2023-08-08T16:02:55;22.40;54.60